Theologos P . — SZNB — position and weather

sailwx.info

Track history (hours):
 
Tides and Currents Weather Stations Pressure Air Temp Water Temp Dewpoint Dewpoint Depression Visibility Wind Speed Wind Dir Waves Ship Positions

Theologos P .

Last reported at 2016-Sep-26 20:33 UTC. Time now 2016-Sep-26 22:29 UTC.
Position N 37°28' E 025°19'.

Length 118 m; draft 4.5 m.

Type: Passenger vessel. MMSI: 240521000.

Date/timePositionNaut miles runAvg speedWind from/ knotsBaromVisibWave heightAir tempDewpointWater temp
2016-Sep-26 20:33N 37°28' E 025°19'0 0.0
2016-Sep-26 19:33N 37°28' E 025°19'5513.7
2016-Sep-26 15:33N 37°56' E 024°20'4 0.6
2016-Sep-26 08:33N 37°57' E 024°15'59 9.8
2016-Sep-26 02:34N 37°28' E 025°20'0 0.0
2016-Sep-26 01:34N 37°28' E 025°20'0 0.0
2016-Sep-26 00:34N 37°28' E 025°20'0 0.0
2016-Sep-25 21:34N 37°28' E 025°20'32 8.1
2016-Sep-25 17:34N 37°48' E 024°47'1211.7
2016-Sep-25 16:33N 37°53' E 024°34'1919.0
2016-Sep-25 15:33N 37°59' E 024°11'9 7.8
2016-Sep-25 14:28N 38°01' E 024°01'5315.9
2016-Sep-25 11:10N 37°37' E 025°00'914.7
2016-Sep-25 10:33N 37°32' E 025°09'9 9.1
2016-Sep-25 09:33N 37°28' E 025°19'0 0.0
2016-Sep-25 07:33N 37°28' E 025°19'0 0.0
2016-Sep-25 04:34N 37°28' E 025°19'0 0.0
2016-Sep-25 00:33N 37°28' E 025°19'0 0.0
2016-Sep-24 22:33N 37°28' E 025°19'0 0.0
2016-Sep-24 21:33N 37°28' E 025°19'0 0.0
2016-Sep-24 19:34N 37°28' E 025°19'9 9.1
2016-Sep-24 18:33N 37°32' E 025°09'1514.7
2016-Sep-24 17:33N 37°41' E 024°55'1413.7
2016-Sep-24 16:30N 37°53' E 024°44'20 3.4
2016-Sep-24 10:33N 37°37' E 025°00'1010.1
2016-Sep-24 09:34N 37°31' E 025°10'8 1.4
2016-Sep-24 03:33N 37°28' E 025°20'0 0.0
2016-Sep-24 02:33N 37°28' E 025°20'0 0.0
2016-Sep-24 01:33N 37°28' E 025°20'0 0.0
2016-Sep-24 00:33N 37°28' E 025°20'0 0.0
2016-Sep-23 19:33N 37°28' E 025°20'0 0.0
2016-Sep-23 17:33N 37°28' E 025°20'0 0.0
2016-Sep-23 16:33N 37°28' E 025°20'0 0.0
2016-Sep-23 15:33N 37°28' E 025°20'0 0.0
2016-Sep-23 13:33N 37°28' E 025°20'0 0.0
2016-Sep-23 09:33N 37°28' E 025°20'0 0.0
2016-Sep-23 06:33N 37°28' E 025°20'0 0.0
2016-Sep-23 04:33N 37°28' E 025°20'0 0.0
2016-Sep-23 03:33N 37°28' E 025°20'0 0.0
2016-Sep-23 02:33N 37°28' E 025°20'0 0.0
2016-Sep-23 01:33N 37°28' E 025°20'0 0.0
2016-Sep-23 00:33N 37°28' E 025°20'0 0.0
2016-Sep-22 23:33N 37°28' E 025°20'0 0.0
2016-Sep-22 20:33N 37°28' E 025°20'0 0.0
2016-Sep-22 12:33N 37°28' E 025°20'0 0.0
2016-Sep-22 04:33N 37°28' E 025°20'0 0.0
2016-Sep-22 03:33N 37°28' E 025°20'0 0.0
2016-Sep-22 00:33N 37°28' E 025°20'0 0.0
2016-Sep-21 23:33N 37°28' E 025°20'0 0.0
2016-Sep-21 22:33N 37°28' E 025°20'0 0.0
2016-Sep-21 19:33N 37°28' E 025°20'3812.7
2016-Sep-21 16:34N 37°52' E 024°43'34 4.7
2016-Sep-21 09:14N 38°01' E 024°01'1217.5
2016-Sep-21 08:34N 37°57' E 024°15'4815.9
2016-Sep-21 05:33N 37°33' E 025°07'11 5.7
2016-Sep-21 03:33N 37°28' E 025°20'0 0.0
2016-Sep-21 02:33N 37°28' E 025°20'24 2.7
2016-Sep-20 17:32N 37°41' E 024°54'33 3.7
2016-Sep-20 08:33N 37°57' E 024°17'3515.0
2016-Sep-20 06:13N 37°40' E 024°56'22 6.1
2016-Sep-20 02:34N 37°28' E 025°20'0 0.0
2016-Sep-19 23:34N 37°28' E 025°20'0 0.0
2016-Sep-19 19:33N 37°28' E 025°20'9 9.3
2016-Sep-19 18:34N 37°32' E 025°09'2913.3
2016-Sep-19 16:24N 37°52' E 024°44'3519.0
2016-Sep-19 14:34N 38°01' E 024°01'0 0.0
2016-Sep-19 09:17N 38°01' E 024°01'4215.2
2016-Sep-19 06:33N 37°45' E 024°50'29 9.8
2016-Sep-19 03:33N 37°28' E 025°19'0 0.0
2016-Sep-19 02:33N 37°28' E 025°19'0 0.0
2016-Sep-19 00:33N 37°28' E 025°19'7114.1
2016-Sep-18 19:33N 38°01' E 024°01'16 3.9
2016-Sep-18 15:23N 37°56' E 024°20'1619.3
2016-Sep-18 14:33N 38°01' E 024°01'5012.6
2016-Sep-18 10:33N 37°39' E 024°58'1111.2
2016-Sep-18 09:34N 37°32' E 025°09'9 1.3
2016-Sep-18 02:33N 37°28' E 025°20'0 0.0
2016-Sep-18 01:33N 37°28' E 025°20'0 0.0
2016-Sep-18 00:33N 37°28' E 025°20'0 0.0
2016-Sep-17 22:33N 37°28' E 025°20'0 0.0
2016-Sep-17 21:33N 37°28' E 025°20'0 0.0
2016-Sep-17 20:33N 37°28' E 025°20'0 0.0
2016-Sep-17 19:16N 37°28' E 025°20'6912.0
2016-Sep-17 13:34N 38°01' E 024°04'4615.3
2016-Sep-17 10:33N 37°40' E 024°56'1313.5
2016-Sep-17 09:33N 37°32' E 025°09'8 7.8
2016-Sep-17 08:34N 37°28' E 025°18'1212.5
2016-Sep-17 07:34N 37°35' E 025°04'4916.3
2016-Sep-17 04:33N 37°59' E 024°11'  
Track history (hours):
 
Tides and Currents Weather Stations Pressure Air Temp Water Temp Dewpoint Dewpoint Depression Visibility Wind Speed Wind Dir Waves Ship Positions

Theologos P .

Last reported at 2016-Sep-26 20:33 UTC. Time now 2016-Sep-26 22:29 UTC.
Position N 37°28' E 025°19'.

Length 118 m; draft 4.5 m.

Type: Passenger vessel. MMSI: 240521000.

Date/timePositionNaut miles runAvg speedWind from/ knotsBaromVisibWave heightAir tempDewpointWater temp
2016-Sep-26 20:33N 37°28' E 025°19'0 0.0
2016-Sep-26 19:33N 37°28' E 025°19'5513.7
2016-Sep-26 15:33N 37°56' E 024°20'4 0.6
2016-Sep-26 08:33N 37°57' E 024°15'59 9.8
2016-Sep-26 02:34N 37°28' E 025°20'0 0.0
2016-Sep-26 01:34N 37°28' E 025°20'0 0.0
2016-Sep-26 00:34N 37°28' E 025°20'0 0.0
2016-Sep-25 21:34N 37°28' E 025°20'32 8.1
2016-Sep-25 17:34N 37°48' E 024°47'1211.7
2016-Sep-25 16:33N 37°53' E 024°34'1919.0
2016-Sep-25 15:33N 37°59' E 024°11'9 7.8
2016-Sep-25 14:28N 38°01' E 024°01'5315.9
2016-Sep-25 11:10N 37°37' E 025°00'914.7
2016-Sep-25 10:33N 37°32' E 025°09'9 9.1
2016-Sep-25 09:33N 37°28' E 025°19'0 0.0
2016-Sep-25 07:33N 37°28' E 025°19'0 0.0
2016-Sep-25 04:34N 37°28' E 025°19'0 0.0
2016-Sep-25 00:33N 37°28' E 025°19'0 0.0
2016-Sep-24 22:33N 37°28' E 025°19'0 0.0
2016-Sep-24 21:33N 37°28' E 025°19'0 0.0
2016-Sep-24 19:34N 37°28' E 025°19'9 9.1
2016-Sep-24 18:33N 37°32' E 025°09'1514.7
2016-Sep-24 17:33N 37°41' E 024°55'1413.7
2016-Sep-24 16:30N 37°53' E 024°44'20 3.4
2016-Sep-24 10:33N 37°37' E 025°00'1010.1
2016-Sep-24 09:34N 37°31' E 025°10'8 1.4
2016-Sep-24 03:33N 37°28' E 025°20'0 0.0
2016-Sep-24 02:33N 37°28' E 025°20'0 0.0
2016-Sep-24 01:33N 37°28' E 025°20'0 0.0
2016-Sep-24 00:33N 37°28' E 025°20'0 0.0
2016-Sep-23 19:33N 37°28' E 025°20'0 0.0
2016-Sep-23 17:33N 37°28' E 025°20'0 0.0
2016-Sep-23 16:33N 37°28' E 025°20'0 0.0
2016-Sep-23 15:33N 37°28' E 025°20'0 0.0
2016-Sep-23 13:33N 37°28' E 025°20'0 0.0
2016-Sep-23 09:33N 37°28' E 025°20'0 0.0
2016-Sep-23 06:33N 37°28' E 025°20'0 0.0
2016-Sep-23 04:33N 37°28' E 025°20'0 0.0
2016-Sep-23 03:33N 37°28' E 025°20'0 0.0
2016-Sep-23 02:33N 37°28' E 025°20'0 0.0
2016-Sep-23 01:33N 37°28' E 025°20'0 0.0
2016-Sep-23 00:33N 37°28' E 025°20'0 0.0
2016-Sep-22 23:33N 37°28' E 025°20'0 0.0
2016-Sep-22 20:33N 37°28' E 025°20'0 0.0
2016-Sep-22 12:33N 37°28' E 025°20'0 0.0
2016-Sep-22 04:33N 37°28' E 025°20'0 0.0
2016-Sep-22 03:33N 37°28' E 025°20'0 0.0
2016-Sep-22 00:33N 37°28' E 025°20'0 0.0
2016-Sep-21 23:33N 37°28' E 025°20'0 0.0
2016-Sep-21 22:33N 37°28' E 025°20'0 0.0
2016-Sep-21 19:33N 37°28' E 025°20'3812.7
2016-Sep-21 16:34N 37°52' E 024°43'34 4.7
2016-Sep-21 09:14N 38°01' E 024°01'1217.5
2016-Sep-21 08:34N 37°57' E 024°15'4815.9
2016-Sep-21 05:33N 37°33' E 025°07'11 5.7
2016-Sep-21 03:33N 37°28' E 025°20'0 0.0
2016-Sep-21 02:33N 37°28' E 025°20'24 2.7
2016-Sep-20 17:32N 37°41' E 024°54'33 3.7
2016-Sep-20 08:33N 37°57' E 024°17'3515.0
2016-Sep-20 06:13N 37°40' E 024°56'22 6.1
2016-Sep-20 02:34N 37°28' E 025°20'0 0.0
2016-Sep-19 23:34N 37°28' E 025°20'0 0.0
2016-Sep-19 19:33N 37°28' E 025°20'9 9.3
2016-Sep-19 18:34N 37°32' E 025°09'2913.3
2016-Sep-19 16:24N 37°52' E 024°44'3519.0
2016-Sep-19 14:34N 38°01' E 024°01'0 0.0
2016-Sep-19 09:17N 38°01' E 024°01'4215.2
2016-Sep-19 06:33N 37°45' E 024°50'29 9.8
2016-Sep-19 03:33N 37°28' E 025°19'0 0.0
2016-Sep-19 02:33N 37°28' E 025°19'0 0.0
2016-Sep-19 00:33N 37°28' E 025°19'7114.1
2016-Sep-18 19:33N 38°01' E 024°01'16 3.9
2016-Sep-18 15:23N 37°56' E 024°20'1619.3
2016-Sep-18 14:33N 38°01' E 024°01'5012.6
2016-Sep-18 10:33N 37°39' E 024°58'1111.2
2016-Sep-18 09:34N 37°32' E 025°09'9 1.3
2016-Sep-18 02:33N 37°28' E 025°20'0 0.0
2016-Sep-18 01:33N 37°28' E 025°20'0 0.0
2016-Sep-18 00:33N 37°28' E 025°20'0 0.0
2016-Sep-17 22:33N 37°28' E 025°20'0 0.0
2016-Sep-17 21:33N 37°28' E 025°20'0 0.0
2016-Sep-17 20:33N 37°28' E 025°20'0 0.0
2016-Sep-17 19:16N 37°28' E 025°20'6912.0
2016-Sep-17 13:34N 38°01' E 024°04'4615.3
2016-Sep-17 10:33N 37°40' E 024°56'1313.5
2016-Sep-17 09:33N 37°32' E 025°09'8 7.8
2016-Sep-17 08:34N 37°28' E 025°18'1212.5
2016-Sep-17 07:34N 37°35' E 025°04'4916.3
2016-Sep-17 04:33N 37°59' E 024°11'  

Dump ship's entire track history